Time;durP1;ratioP1;P1;durP2;ratioP2;P2;SDS_P1;SDS_P2;PMS_P1;PMS_P2;Temp;Humidity;BMP_temperature;BMP_pressure;BME280_temperature;BME280_humidity;BME280_pressure;Samples;Min_cycle;Max_cycle;Signal;HPM_P1;HPM_P2
2022/07/13 00:01:18;;;;;;;1.77;1.40;;;;;;;;;;4677819;30;20125;-75
2022/07/13 00:04:03;;;;;;;3.00;1.63;;;;;;;;;;4620974;30;20432;-75
2022/07/13 00:06:49;;;;;;;5.32;1.50;;;;;;;;;;4698913;29;20041;-69
2022/07/13 00:09:35;;;;;;;3.63;1.73;;;;;;;;;;4688228;30;20034;-70
2022/07/13 00:12:20;;;;;;;3.75;1.70;;;;;;;;;;4722772;29;20484;-70
2022/07/13 00:15:06;;;;;;;4.50;1.50;;;;;;;;;;4672709;30;20482;-69
2022/07/13 00:17:52;;;;;;;2.53;1.40;;;;;;;;;;4670173;30;20128;-69
2022/07/13 00:20:37;;;;;;;2.40;1.45;;;;;;;;;;4638566;30;20049;-70
2022/07/13 00:23:23;;;;;;;2.50;1.52;;;;;;;;;;4701892;29;20559;-68
2022/07/13 00:26:09;;;;;;;3.13;1.83;;;;;;;;;;4723279;29;20046;-71
2022/07/13 00:28:55;;;;;;;3.25;1.52;;;;;;;;;;4738290;29;20044;-69
2022/07/13 00:31:41;;;;;;;4.28;1.92;;;;;;;;;;4689027;30;20033;-71
2022/07/13 00:34:27;;;;;;;4.07;2.05;;;;;;;;;;4735666;29;20202;-70
2022/07/13 00:37:12;;;;;;;2.88;1.70;;;;;;;;;;4777758;29;20051;-72
2022/07/13 00:39:58;;;;;;;2.88;1.98;;;;;;;;;;4773560;29;20666;-69
2022/07/13 00:42:44;;;;;;;2.03;1.50;;;;;;;;;;4824708;29;20073;-72
2022/07/13 00:45:29;;;;;;;3.65;1.58;;;;;;;;;;4830559;29;20390;-69
2022/07/13 00:48:15;;;;;;;2.10;1.42;;;;;;;;;;4833863;29;20067;-72
2022/07/13 00:51:00;;;;;;;3.08;1.75;;;;;;;;;;4885923;29;20046;-71
2022/07/13 00:53:46;;;;;;;4.05;1.80;;;;;;;;;;4868489;29;20504;-71
2022/07/13 00:56:32;;;;;;;1.75;1.35;;;;;;;;;;4820494;29;20475;-71
2022/07/13 00:59:17;;;;;;;2.28;1.20;;;;;;;;;;4814084;29;20102;-70
2022/07/13 01:02:03;;;;;;;3.78;1.67;;;;;;;;;;4836402;29;20133;-76
2022/07/13 01:04:49;;;;;;;2.67;1.65;;;;;;;;;;4776894;29;20043;-67
2022/07/13 01:07:35;;;;;;;2.50;1.70;;;;;;;;;;4852101;29;20133;-75
2022/07/13 01:10:21;;;;;;;2.75;1.48;;;;;;;;;;4827783;29;20045;-75
2022/07/13 01:13:08;;;;;;;3.50;1.40;;;;;;;;;;4825658;29;20049;-75
2022/07/13 01:15:53;;;;;;;2.55;1.35;;;;;;;;;;4852886;29;20411;-74
2022/07/13 01:18:39;;;;;;;3.20;1.65;;;;;;;;;;4829753;29;20530;-76
2022/07/13 01:21:25;;;;;;;2.13;1.45;;;;;;;;;;4781084;29;20183;-83
2022/07/13 01:24:11;;;;;;;4.85;1.73;;;;;;;;;;4796010;29;20030;-71
2022/07/13 01:26:57;;;;;;;2.45;1.40;;;;;;;;;;4800545;29;20034;-70
2022/07/13 01:29:42;;;;;;;3.28;1.50;;;;;;;;;;4814809;29;20081;-71
2022/07/13 01:32:28;;;;;;;4.60;1.60;;;;;;;;;;4774981;29;20054;-71
2022/07/13 01:35:14;;;;;;;1.63;1.30;;;;;;;;;;4741430;29;20097;-70
2022/07/13 01:38:00;;;;;;;2.35;1.60;;;;;;;;;;4783831;29;20132;-70
2022/07/13 01:40:45;;;;;;;2.15;1.30;;;;;;;;;;4779176;29;20038;-71
2022/07/13 01:43:40;;;;;;;4.00;1.40;;;;;;;;;;4775653;29;20043;-70
2022/07/13 01:46:26;;;;;;;3.03;1.05;;;;;;;;;;4720528;29;20051;-70
2022/07/13 01:49:13;;;;;;;2.53;1.50;;;;;;;;;;4723638;29;22432;-70
2022/07/13 01:52:00;;;;;;;3.53;1.38;;;;;;;;;;4757213;29;20046;-71
2022/07/13 01:54:47;;;;;;;2.90;1.40;;;;;;;;;;4693956;29;20044;-70
2022/07/13 01:57:35;;;;;;;3.15;1.40;;;;;;;;;;4740645;29;20062;-67
2022/07/13 02:00:20;;;;;;;1.70;1.38;;;;;;;;;;4750803;29;20103;-67
2022/07/13 02:03:06;;;;;;;2.38;1.50;;;;;;;;;;4810835;29;20536;-68
2022/07/13 02:05:52;;;;;;;2.25;1.50;;;;;;;;;;4792843;29;20129;-69
2022/07/13 02:08:37;;;;;;;2.78;1.30;;;;;;;;;;4812977;29;20026;-70
2022/07/13 02:11:23;;;;;;;2.47;1.30;;;;;;;;;;4781220;29;20488;-70
2022/07/13 02:14:09;;;;;;;1.35;1.08;;;;;;;;;;4749308;29;20472;-70
2022/07/13 02:16:54;;;;;;;1.85;1.10;;;;;;;;;;4747577;29;20119;-71
2022/07/13 02:19:40;;;;;;;3.15;1.75;;;;;;;;;;4787425;29;20525;-70
2022/07/13 02:22:26;;;;;;;1.65;1.38;;;;;;;;;;4779417;29;20043;-70
2022/07/13 02:25:12;;;;;;;1.52;1.40;;;;;;;;;;4797079;29;20053;-71
2022/07/13 02:27:58;;;;;;;3.20;1.20;;;;;;;;;;4800851;29;20098;-70
2022/07/13 02:30:43;;;;;;;2.25;1.42;;;;;;;;;;4733033;30;20045;-70
2022/07/13 02:33:29;;;;;;;1.98;1.45;;;;;;;;;;4719049;29;20497;-70
2022/07/13 02:36:14;;;;;;;1.17;1.10;;;;;;;;;;4749669;29;20060;-80
2022/07/13 02:39:00;;;;;;;2.88;1.20;;;;;;;;;;4734546;29;20144;-76
2022/07/13 02:41:45;;;;;;;3.90;1.65;;;;;;;;;;4766519;29;20051;-76
2022/07/13 02:44:31;;;;;;;1.25;1.10;;;;;;;;;;4791037;29;20038;-75
2022/07/13 02:47:17;;;;;;;2.28;1.50;;;;;;;;;;4781687;29;20043;-75
2022/07/13 02:50:02;;;;;;;3.28;1.33;;;;;;;;;;4807399;29;20034;-74
2022/07/13 02:52:48;;;;;;;1.30;1.20;;;;;;;;;;4758467;29;20034;-67
2022/07/13 02:55:34;;;;;;;3.67;1.48;;;;;;;;;;4747595;29;20537;-68
2022/07/13 02:58:19;;;;;;;1.73;1.33;;;;;;;;;;4717391;29;20051;-71
2022/07/13 03:01:05;;;;;;;2.40;1.40;;;;;;;;;;4736697;29;20158;-71
2022/07/13 03:03:50;;;;;;;2.25;1.40;;;;;;;;;;4762349;29;20076;-71
2022/07/13 03:06:36;;;;;;;2.22;1.60;;;;;;;;;;4715463;30;20077;-71
2022/07/13 03:09:21;;;;;;;4.57;1.98;;;;;;;;;;4703386;29;20048;-72
2022/07/13 03:12:07;;;;;;;1.48;1.35;;;;;;;;;;4759639;29;20492;-72
2022/07/13 03:14:53;;;;;;;1.48;1.25;;;;;;;;;;4777029;29;20115;-71
2022/07/13 03:17:40;;;;;;;1.33;1.10;;;;;;;;;;4808013;29;20046;-72
2022/07/13 03:20:26;;;;;;;1.95;1.30;;;;;;;;;;4790779;29;20042;-71
2022/07/13 03:23:12;;;;;;;2.30;1.40;;;;;;;;;;4790692;29;20125;-71
2022/07/13 03:25:57;;;;;;;3.13;1.20;;;;;;;;;;4813292;29;20542;-71
2022/07/13 03:28:43;;;;;;;1.20;1.10;;;;;;;;;;4821111;29;20046;-71
2022/07/13 03:31:28;;;;;;;2.38;1.58;;;;;;;;;;4807397;29;20038;-70
2022/07/13 03:34:14;;;;;;;2.10;1.40;;;;;;;;;;4825873;29;20030;-74
2022/07/13 03:37:00;;;;;;;1.50;1.40;;;;;;;;;;4871330;29;34522;-74
2022/07/13 03:39:45;;;;;;;1.70;1.30;;;;;;;;;;4879073;29;20485;-74
2022/07/13 03:42:33;;;;;;;2.05;1.10;;;;;;;;;;4853442;29;20092;-75
2022/07/13 03:45:18;;;;;;;1.70;1.25;;;;;;;;;;4797672;29;20042;-75
2022/07/13 03:48:07;;;;;;;2.83;1.40;;;;;;;;;;4792750;29;20117;-71
2022/07/13 03:50:53;;;;;;;3.30;1.27;;;;;;;;;;4812681;29;20072;-71
2022/07/13 03:53:39;;;;;;;2.90;1.52;;;;;;;;;;4845057;29;20048;-71
2022/07/13 03:56:24;;;;;;;3.10;1.60;;;;;;;;;;4885366;28;20270;-72
2022/07/13 03:59:10;;;;;;;2.72;1.42;;;;;;;;;;4915822;29;20458;-71
2022/07/13 04:01:56;;;;;;;5.57;1.95;;;;;;;;;;4905398;29;20028;-72
2022/07/13 04:04:41;;;;;;;3.35;1.55;;;;;;;;;;4907925;29;20036;-71
2022/07/13 04:07:27;;;;;;;1.75;1.27;;;;;;;;;;4873656;29;20714;-70
2022/07/13 04:10:12;;;;;;;2.15;1.40;;;;;;;;;;4889680;29;20036;-69
2022/07/13 04:12:58;;;;;;;5.43;1.75;;;;;;;;;;4893669;28;20460;-70
2022/07/13 04:15:44;;;;;;;4.85;1.83;;;;;;;;;;4913488;28;20034;-69
2022/07/13 04:18:29;;;;;;;1.58;1.27;;;;;;;;;;4929991;28;20066;-69
2022/07/13 04:21:15;;;;;;;2.05;1.63;;;;;;;;;;4915497;28;20057;-70
2022/07/13 04:24:00;;;;;;;3.28;1.73;;;;;;;;;;4880434;29;26869;-70
2022/07/13 04:26:46;;;;;;;2.13;1.40;;;;;;;;;;4926206;28;20525;-71
2022/07/13 04:29:32;;;;;;;3.85;1.60;;;;;;;;;;4934023;28;20507;-71
2022/07/13 04:32:18;;;;;;;6.03;1.50;;;;;;;;;;4876471;29;20068;-71
2022/07/13 04:35:04;;;;;;;2.50;2.00;;;;;;;;;;4867603;29;20094;-72
2022/07/13 04:37:50;;;;;;;5.50;1.88;;;;;;;;;;4863507;29;20032;-70
2022/07/13 04:40:35;;;;;;;3.42;1.38;;;;;;;;;;4877637;29;20395;-70
2022/07/13 04:43:21;;;;;;;2.30;1.55;;;;;;;;;;4872225;29;20452;-70
2022/07/13 04:46:06;;;;;;;2.42;1.60;;;;;;;;;;4882920;29;20039;-69
2022/07/13 04:49:11;;;;;;;1.85;1.25;;;;;;;;;;4851909;29;20042;-70
2022/07/13 04:51:59;;;;;;;1.77;1.50;;;;;;;;;;4841168;29;20472;-71
2022/07/13 04:54:45;;;;;;;2.53;1.50;;;;;;;;;;4856463;29;20036;-69
2022/07/13 04:57:30;;;;;;;2.08;1.40;;;;;;;;;;4895983;29;20047;-69
2022/07/13 05:00:16;;;;;;;4.13;1.60;;;;;;;;;;4859743;29;20049;-68
2022/07/13 05:03:02;;;;;;;1.45;1.30;;;;;;;;;;4846978;29;20663;-75
2022/07/13 05:05:47;;;;;;;1.77;1.45;;;;;;;;;;4847525;29;20044;-74
2022/07/13 05:08:33;;;;;;;4.20;1.58;;;;;;;;;;4884821;29;20040;-74
2022/07/13 05:11:18;;;;;;;1.60;1.50;;;;;;;;;;4911561;29;20044;-74
2022/07/13 05:14:04;;;;;;;3.53;1.75;;;;;;;;;;4904122;29;20030;-74
2022/07/13 05:16:49;;;;;;;3.25;1.75;;;;;;;;;;4912568;29;20070;-74
2022/07/13 05:19:35;;;;;;;4.05;1.70;;;;;;;;;;4920716;28;20038;-66
2022/07/13 05:22:22;;;;;;;4.10;1.60;;;;;;;;;;4910642;28;20115;-70
2022/07/13 05:25:08;;;;;;;2.88;1.30;;;;;;;;;;4917465;28;20036;-69
2022/07/13 05:27:53;;;;;;;4.43;1.55;;;;;;;;;;4910502;29;20111;-70
2022/07/13 05:30:39;;;;;;;2.40;1.70;;;;;;;;;;4939080;28;20040;-70
2022/07/13 05:33:25;;;;;;;4.38;1.67;;;;;;;;;;4944890;28;20173;-70
2022/07/13 05:36:10;;;;;;;2.92;1.40;;;;;;;;;;4917030;28;20073;-74
2022/07/13 05:38:56;;;;;;;8.57;1.90;;;;;;;;;;4930870;28;20117;-66
2022/07/13 05:41:41;;;;;;;3.65;1.55;;;;;;;;;;4952801;28;20042;-70
2022/07/13 05:44:28;;;;;;;7.57;1.80;;;;;;;;;;4982310;28;20434;-69
2022/07/13 05:47:13;;;;;;;2.90;1.60;;;;;;;;;;4978924;28;20038;-71
2022/07/13 05:49:59;;;;;;;4.53;1.60;;;;;;;;;;4980053;28;20100;-69
2022/07/13 05:52:45;;;;;;;3.90;1.90;;;;;;;;;;4970211;28;20045;-70
2022/07/13 05:55:30;;;;;;;6.88;1.65;;;;;;;;;;4973969;28;20022;-70
2022/07/13 05:58:16;;;;;;;4.35;1.60;;;;;;;;;;4996491;28;20342;-68
2022/07/13 06:01:01;;;;;;;2.10;1.30;;;;;;;;;;4980587;28;20042;-71
2022/07/13 06:03:47;;;;;;;4.82;1.67;;;;;;;;;;4974070;28;20038;-64
2022/07/13 06:06:32;;;;;;;8.70;2.10;;;;;;;;;;4967057;28;20043;-64
2022/07/13 06:09:18;;;;;;;5.18;2.05;;;;;;;;;;4961966;28;20035;-63
2022/07/13 06:12:04;;;;;;;5.57;1.90;;;;;;;;;;4949722;28;20039;-64
2022/07/13 06:14:49;;;;;;;5.07;1.70;;;;;;;;;;4964924;28;20054;-70
2022/07/13 06:17:35;;;;;;;2.22;1.38;;;;;;;;;;4980809;28;20038;-61
2022/07/13 06:20:21;;;;;;;2.88;1.58;;;;;;;;;;4973616;28;20049;-62
2022/07/13 06:23:09;;;;;;;3.88;1.70;;;;;;;;;;4975003;28;20036;-60
2022/07/13 06:25:55;;;;;;;2.83;1.30;;;;;;;;;;4979352;28;20089;-60
2022/07/13 06:28:40;;;;;;;6.10;1.88;;;;;;;;;;4949448;28;20023;-61
2022/07/13 06:31:26;;;;;;;3.58;1.50;;;;;;;;;;4918294;28;20032;-65
2022/07/13 06:34:11;;;;;;;4.85;1.58;;;;;;;;;;4934987;28;20372;-64
2022/07/13 06:36:57;;;;;;;5.40;1.65;;;;;;;;;;4930075;28;20031;-70
2022/07/13 06:39:43;;;;;;;8.60;2.33;;;;;;;;;;4934720;28;20359;-69
2022/07/13 06:42:29;;;;;;;2.60;1.55;;;;;;;;;;4945223;28;20038;-70
2022/07/13 06:45:14;;;;;;;3.97;1.70;;;;;;;;;;4957570;28;20046;-70
2022/07/13 06:48:00;;;;;;;4.22;1.35;;;;;;;;;;4920353;28;20040;-68
2022/07/13 06:50:46;;;;;;;2.25;1.45;;;;;;;;;;4913937;28;20035;-69
2022/07/13 06:53:31;;;;;;;3.10;1.40;;;;;;;;;;4932917;28;20029;-62
2022/07/13 06:56:17;;;;;;;4.15;1.83;;;;;;;;;;4934685;28;20461;-69
2022/07/13 06:59:03;;;;;;;6.60;2.00;;;;;;;;;;4943466;28;20039;-68
2022/07/13 07:01:49;;;;;;;3.53;1.75;;;;;;;;;;4925094;28;20043;-69
2022/07/13 07:04:35;;;;;;;3.80;1.50;;;;;;;;;;4951486;28;20111;-68
2022/07/13 07:07:21;;;;;;;5.63;1.40;;;;;;;;;;4972130;28;20061;-69
2022/07/13 07:10:08;;;;;;;5.40;1.50;;;;;;;;;;4955068;28;20035;-71
2022/07/13 07:12:53;;;;;;;3.88;1.20;;;;;;;;;;4975886;28;20069;-59
2022/07/13 07:15:39;;;;;;;15.55;2.38;;;;;;;;;;4963224;28;20603;-72
2022/07/13 07:18:25;;;;;;;4.95;1.52;;;;;;;;;;4965734;28;20030;-69
2022/07/13 07:21:10;;;;;;;3.67;1.30;;;;;;;;;;4975220;28;20030;-71
2022/07/13 07:23:56;;;;;;;7.85;1.67;;;;;;;;;;4966851;28;20038;-71
2022/07/13 07:26:41;;;;;;;17.17;4.30;;;;;;;;;;4975172;28;20045;-69
2022/07/13 07:29:27;;;;;;;3.28;1.52;;;;;;;;;;4951147;28;20123;-78
2022/07/13 07:32:13;;;;;;;3.30;1.52;;;;;;;;;;4937151;28;20058;-70
2022/07/13 07:34:58;;;;;;;4.32;0.90;;;;;;;;;;4960118;28;20023;-70
2022/07/13 07:37:44;;;;;;;4.57;1.00;;;;;;;;;;4945063;28;20046;-73
2022/07/13 07:40:30;;;;;;;3.30;1.25;;;;;;;;;;4956072;28;20043;-71
2022/07/13 07:43:16;;;;;;;3.22;0.93;;;;;;;;;;4915440;28;20041;-69
2022/07/13 07:46:01;;;;;;;2.45;1.08;;;;;;;;;;4949394;28;20042;-69
2022/07/13 07:48:47;;;;;;;2.53;1.00;;;;;;;;;;4970797;28;20082;-74
2022/07/13 07:51:32;;;;;;;1.42;0.90;;;;;;;;;;4962626;28;20109;-81
2022/07/13 07:54:18;;;;;;;6.25;1.63;;;;;;;;;;4925408;28;20031;-81
2022/07/13 07:57:04;;;;;;;1.73;0.82;;;;;;;;;;4941694;28;20103;-78
2022/07/13 07:59:49;;;;;;;3.60;1.30;;;;;;;;;;4933947;28;20102;-75
2022/07/13 08:02:35;;;;;;;8.75;1.20;;;;;;;;;;4919500;28;20047;-71
2022/07/13 08:05:20;;;;;;;3.83;1.17;;;;;;;;;;4901232;28;20135;-71
2022/07/13 08:08:06;;;;;;;2.53;1.05;;;;;;;;;;4914063;28;20095;-72
2022/07/13 08:10:54;;;;;;;1.52;0.90;;;;;;;;;;4919728;28;20126;-69
2022/07/13 08:13:39;;;;;;;1.23;0.70;;;;;;;;;;4920940;28;20095;-67
2022/07/13 08:16:25;;;;;;;0.73;0.73;;;;;;;;;;4953923;28;20390;-67
2022/07/13 08:19:11;;;;;;;0.77;0.77;;;;;;;;;;4931058;28;20043;-70
2022/07/13 08:21:56;;;;;;;0.80;0.80;;;;;;;;;;4930042;28;20037;-68
2022/07/13 08:24:42;;;;;;;0.73;0.73;;;;;;;;;;4949495;28;20423;-67
2022/07/13 08:27:28;;;;;;;3.22;0.85;;;;;;;;;;4949564;28;20545;-72
2022/07/13 08:30:14;;;;;;;1.63;0.98;;;;;;;;;;4975592;28;20034;-73
2022/07/13 08:32:59;;;;;;;1.77;0.88;;;;;;;;;;4957237;28;21145;-73
2022/07/13 08:39:10;;;;;;;1.67;0.90;;;;;;;;;;4901498;29;20384;-76
2022/07/13 08:41:58;;;;;;;1.13;0.77;;;;;;;;;;4919212;29;20067;-73
2022/07/13 08:44:43;;;;;;;1.17;1.00;;;;;;;;;;4954312;28;20039;-70
2022/07/13 08:47:29;;;;;;;1.23;0.90;;;;;;;;;;4963385;28;20486;-70
2022/07/13 08:50:16;;;;;;;1.98;1.00;;;;;;;;;;4947154;28;20050;-71
2022/07/13 08:53:05;;;;;;;0.73;0.70;;;;;;;;;;4920538;28;20032;-73
2022/07/13 08:55:51;;;;;;;4.07;0.95;;;;;;;;;;4873781;28;20040;-73
2022/07/13 08:58:37;;;;;;;6.95;1.00;;;;;;;;;;4870758;29;20137;-69
2022/07/13 09:01:22;;;;;;;1.00;0.90;;;;;;;;;;4858998;29;20049;-68
2022/07/13 09:07:33;;;;;;;3.53;0.90;;;;;;;;;;4853847;29;20051;-72
2022/07/13 09:10:20;;;;;;;1.40;0.93;;;;;;;;;;4888801;29;20563;-74
2022/07/13 09:13:05;;;;;;;4.18;1.00;;;;;;;;;;4856129;29;20483;-68
2022/07/13 09:16:11;;;;;;;2.70;0.85;;;;;;;;;;4918792;28;22634;-66
2022/07/13 09:18:59;;;;;;;3.13;0.90;;;;;;;;;;4896306;29;20414;-68
2022/07/13 09:21:45;;;;;;;4.45;0.90;;;;;;;;;;4891751;29;20122;-69
2022/07/13 09:24:41;;;;;;;2.03;0.90;;;;;;;;;;4872581;29;20108;-69
2022/07/13 09:27:26;;;;;;;2.80;0.98;;;;;;;;;;4899553;28;20070;-68
2022/07/13 09:30:25;;;;;;;1.02;0.80;;;;;;;;;;4930953;28;20027;-68
2022/07/13 09:33:11;;;;;;;0.93;0.80;;;;;;;;;;4928607;28;20041;-69
2022/07/13 09:35:56;;;;;;;2.63;1.00;;;;;;;;;;4937574;28;21304;-67
2022/07/13 09:38:43;;;;;;;1.48;0.93;;;;;;;;;;4940237;28;20086;-71
2022/07/13 09:41:30;;;;;;;1.63;1.05;;;;;;;;;;4929252;28;20456;-68
2022/07/13 09:47:30;;;;;;;1.77;0.80;;;;;;;;;;4894182;29;20091;-69
2022/07/13 09:50:19;;;;;;;3.60;0.80;;;;;;;;;;4912015;28;20035;-69
2022/07/13 09:53:23;;;;;;;1.30;0.77;;;;;;;;;;4912574;28;20114;-69
2022/07/13 09:56:10;;;;;;;1.73;0.82;;;;;;;;;;4871982;29;20137;-70
2022/07/13 09:58:58;;;;;;;2.00;0.90;;;;;;;;;;4902637;28;20059;-68
2022/07/13 10:01:45;;;;;;;1.15;0.90;;;;;;;;;;4937173;28;20073;-72
2022/07/13 10:04:32;;;;;;;0.88;0.70;;;;;;;;;;4928834;28;20042;-68
2022/07/13 10:07:18;;;;;;;1.13;0.77;;;;;;;;;;4902329;28;20039;-69
2022/07/13 10:10:07;;;;;;;3.45;0.70;;;;;;;;;;4933873;28;20470;-68
2022/07/13 10:12:54;;;;;;;1.23;0.73;;;;;;;;;;4933611;28;20044;-69
2022/07/13 10:15:40;;;;;;;1.77;0.70;;;;;;;;;;4901062;29;20506;-69
2022/07/13 10:18:29;;;;;;;1.50;0.70;;;;;;;;;;4935011;28;20479;-70
2022/07/13 10:21:33;;;;;;;1.70;0.80;;;;;;;;;;4960290;28;20057;-69
2022/07/13 10:24:19;;;;;;;1.52;0.90;;;;;;;;;;4939623;28;20402;-69
2022/07/13 10:27:24;;;;;;;0.60;0.60;;;;;;;;;;4945024;28;20058;-70
2022/07/13 10:30:21;;;;;;;1.10;0.82;;;;;;;;;;4959283;28;20053;-71
2022/07/13 10:33:16;;;;;;;1.25;0.80;;;;;;;;;;4961301;28;20038;-70
2022/07/13 10:36:04;;;;;;;2.22;0.80;;;;;;;;;;4922955;28;20038;-73
2022/07/13 10:39:06;;;;;;;1.17;0.70;;;;;;;;;;4941823;28;20414;-72
2022/07/13 10:41:58;;;;;;;6.97;2.53;;;;;;;;;;4947827;28;20046;-78
2022/07/13 10:44:43;;;;;;;13.07;5.13;;;;;;;;;;4963030;28;20041;-78
2022/07/13 10:47:44;;;;;;;16.35;8.25;;;;;;;;;;4942758;28;20101;-77
2022/07/13 10:50:36;;;;;;;16.92;8.90;;;;;;;;;;4875700;29;20040;-74
2022/07/13 10:53:43;;;;;;;17.58;9.05;;;;;;;;;;4929344;28;20037;-72
2022/07/13 10:56:28;;;;;;;21.73;8.75;;;;;;;;;;4962131;28;20582;-75
2022/07/13 10:59:34;;;;;;;13.55;7.22;;;;;;;;;;4913814;28;20076;-76
2022/07/13 11:02:38;;;;;;;0.82;0.77;;;;;;;;;;4909901;28;20074;-75
2022/07/13 11:05:30;;;;;;;3.00;0.68;;;;;;;;;;4933493;28;20028;-76
2022/07/13 11:08:16;;;;;;;1.27;0.68;;;;;;;;;;4963966;28;20089;-78
2022/07/13 11:11:09;;;;;;;1.55;0.70;;;;;;;;;;4928566;28;20031;-77
2022/07/13 11:13:55;;;;;;;2.92;0.70;;;;;;;;;;4938144;28;20031;-75
2022/07/13 11:16:49;;;;;;;0.85;0.73;;;;;;;;;;4956703;28;20404;-77
2022/07/13 11:19:55;;;;;;;2.20;0.80;;;;;;;;;;4963459;28;20042;-74
2022/07/13 11:26:06;;;;;;;3.05;0.90;;;;;;;;;;4959251;28;20069;-72
2022/07/13 11:29:01;;;;;;;1.65;0.50;;;;;;;;;;4946696;28;20117;-70
2022/07/13 11:31:53;;;;;;;2.50;0.98;;;;;;;;;;4982950;28;20034;-75
2022/07/13 11:34:41;;;;;;;2.83;0.90;;;;;;;;;;4978331;28;20045;-74
2022/07/13 11:37:27;;;;;;;1.08;1.08;;;;;;;;;;4958828;28;20039;-74
2022/07/13 11:40:25;;;;;;;0.68;0.60;;;;;;;;;;4959212;28;20489;-74
2022/07/13 11:43:10;;;;;;;0.88;0.60;;;;;;;;;;4952178;28;20078;-75
2022/07/13 11:45:56;;;;;;;3.92;0.98;;;;;;;;;;4953485;28;20366;-75
2022/07/13 11:48:41;;;;;;;1.17;0.88;;;;;;;;;;4962805;28;20782;-67
2022/07/13 11:51:27;;;;;;;0.80;0.57;;;;;;;;;;4951639;28;20039;-75
2022/07/13 11:54:23;;;;;;;1.92;0.80;;;;;;;;;;4952957;28;20038;-77
2022/07/13 11:57:08;;;;;;;0.60;0.60;;;;;;;;;;4925225;28;20423;-76
2022/07/13 12:00:04;;;;;;;0.75;0.60;;;;;;;;;;4946256;28;20043;-75
2022/07/13 12:02:51;;;;;;;1.02;0.90;;;;;;;;;;4945428;28;20049;-77
2022/07/13 12:05:42;;;;;;;0.55;0.55;;;;;;;;;;4967672;28;20037;-78
2022/07/13 12:08:28;;;;;;;2.08;0.90;;;;;;;;;;4957717;28;20039;-74
2022/07/13 12:11:18;;;;;;;1.20;0.50;;;;;;;;;;4958512;28;20070;-74
2022/07/13 12:14:03;;;;;;;1.00;0.60;;;;;;;;;;4925098;28;20479;-75
2022/07/13 12:16:49;;;;;;;2.53;0.70;;;;;;;;;;4896269;29;20036;-75
2022/07/13 12:19:34;;;;;;;1.25;0.50;;;;;;;;;;4927251;28;20103;-74
2022/07/13 12:22:21;;;;;;;1.33;0.60;;;;;;;;;;4977782;28;20041;-75
2022/07/13 12:25:07;;;;;;;0.40;0.40;;;;;;;;;;4952254;28;20207;-73
2022/07/13 12:27:54;;;;;;;0.77;0.55;;;;;;;;;;4956417;28;20039;-72
2022/07/13 12:30:57;;;;;;;0.60;0.60;;;;;;;;;;4967759;28;22460;-71
2022/07/13 12:33:43;;;;;;;2.70;0.63;;;;;;;;;;4964891;28;20062;-71
2022/07/13 12:36:29;;;;;;;0.88;0.57;;;;;;;;;;4942125;28;20096;-72
2022/07/13 12:39:15;;;;;;;1.50;0.70;;;;;;;;;;4952889;28;20038;-71
2022/07/13 12:42:01;;;;;;;2.92;0.63;;;;;;;;;;4962627;28;20030;-72
2022/07/13 12:44:47;;;;;;;2.05;1.05;;;;;;;;;;4948277;28;20094;-69
2022/07/13 12:47:33;;;;;;;0.60;0.60;;;;;;;;;;4953816;28;20039;-71
2022/07/13 12:50:26;;;;;;;3.08;0.90;;;;;;;;;;4946400;28;20058;-75
2022/07/13 12:53:12;;;;;;;2.10;0.95;;;;;;;;;;4955502;28;20057;-69
2022/07/13 12:55:58;;;;;;;1.27;0.50;;;;;;;;;;4933112;28;20031;-70
2022/07/13 12:58:46;;;;;;;1.35;0.60;;;;;;;;;;4950616;28;20046;-71
2022/07/13 13:01:34;;;;;;;0.60;0.57;;;;;;;;;;4938425;28;20066;-71
2022/07/13 13:04:20;;;;;;;0.50;0.50;;;;;;;;;;4919823;28;20403;-70
2022/07/13 13:07:06;;;;;;;1.92;0.77;;;;;;;;;;4937514;28;20248;-69
2022/07/13 13:09:51;;;;;;;1.13;0.70;;;;;;;;;;4930897;28;20165;-70
2022/07/13 13:12:37;;;;;;;0.68;0.60;;;;;;;;;;4960363;28;20034;-70
2022/07/13 13:15:23;;;;;;;1.98;0.60;;;;;;;;;;4974195;28;20153;-68
2022/07/13 13:18:09;;;;;;;2.20;0.80;;;;;;;;;;4956258;28;20074;-71
2022/07/13 13:20:55;;;;;;;3.40;0.68;;;;;;;;;;4951769;28;20031;-82
2022/07/13 13:23:41;;;;;;;0.60;0.60;;;;;;;;;;4955726;28;20042;-68
2022/07/13 13:26:27;;;;;;;0.60;0.60;;;;;;;;;;4951468;28;20474;-70
2022/07/13 13:32:17;;;;;;;2.55;0.60;;;;;;;;;;4968470;28;20436;-70
2022/07/13 13:35:03;;;;;;;0.82;0.70;;;;;;;;;;4932382;28;20028;-71
2022/07/13 13:37:49;;;;;;;3.55;0.88;;;;;;;;;;4944337;28;20071;-71
2022/07/13 13:40:36;;;;;;;2.83;0.70;;;;;;;;;;4968208;28;20104;-71
2022/07/13 13:43:21;;;;;;;0.60;0.60;;;;;;;;;;4976596;28;20085;-72
2022/07/13 13:46:07;;;;;;;3.80;0.70;;;;;;;;;;4999302;28;20022;-72
2022/07/13 13:48:52;;;;;;;1.25;0.70;;;;;;;;;;5000231;28;20037;-72
2022/07/13 13:51:38;;;;;;;2.88;0.98;;;;;;;;;;4987738;28;20345;-69
2022/07/13 13:54:27;;;;;;;2.13;0.90;;;;;;;;;;4999122;28;20464;-69
2022/07/13 13:57:12;;;;;;;1.30;0.70;;;;;;;;;;4964114;28;20494;-69
2022/07/13 13:59:58;;;;;;;1.35;0.77;;;;;;;;;;4982300;28;20427;-71
2022/07/13 14:02:44;;;;;;;1.92;1.05;;;;;;;;;;4971137;28;20031;-71
2022/07/13 14:05:30;;;;;;;1.17;0.80;;;;;;;;;;4987004;28;20088;-70
2022/07/13 14:08:15;;;;;;;0.55;0.55;;;;;;;;;;4980440;28;20825;-70
2022/07/13 14:11:01;;;;;;;0.82;0.60;;;;;;;;;;4975760;28;20622;-69
2022/07/13 14:13:47;;;;;;;2.38;0.85;;;;;;;;;;4991649;28;20030;-68
2022/07/13 14:16:33;;;;;;;0.82;0.75;;;;;;;;;;4972052;28;20480;-68
2022/07/13 14:19:18;;;;;;;1.85;1.08;;;;;;;;;;4962822;28;20390;-70
2022/07/13 14:22:04;;;;;;;0.63;0.63;;;;;;;;;;4981302;28;20428;-69
2022/07/13 14:24:50;;;;;;;1.13;0.80;;;;;;;;;;4953033;28;20497;-67
2022/07/13 14:27:36;;;;;;;3.35;2.47;;;;;;;;;;4952999;28;20035;-69
2022/07/13 14:30:22;;;;;;;0.90;0.80;;;;;;;;;;4949820;28;20039;-67
2022/07/13 14:33:07;;;;;;;0.85;0.82;;;;;;;;;;4971915;28;20489;-68
2022/07/13 14:35:54;;;;;;;3.92;0.90;;;;;;;;;;4965861;28;20565;-69
2022/07/13 14:38:40;;;;;;;4.03;0.90;;;;;;;;;;4958343;28;20038;-69
2022/07/13 14:41:25;;;;;;;2.17;1.20;;;;;;;;;;4923591;28;20109;-69
2022/07/13 14:44:23;;;;;;;1.67;1.08;;;;;;;;;;4958156;28;20507;-70
2022/07/13 14:47:08;;;;;;;1.20;0.90;;;;;;;;;;4920764;28;20044;-69
2022/07/13 14:49:54;;;;;;;1.35;0.90;;;;;;;;;;4923325;28;20384;-70
2022/07/13 14:52:40;;;;;;;3.95;1.23;;;;;;;;;;4932784;28;20023;-72
2022/07/13 14:55:26;;;;;;;2.28;1.02;;;;;;;;;;4965456;28;20641;-69
2022/07/13 14:58:12;;;;;;;1.63;0.80;;;;;;;;;;4906266;28;20189;-73
2022/07/13 15:00:58;;;;;;;14.00;7.35;;;;;;;;;;4900564;28;20498;-63
2022/07/13 15:03:46;;;;;;;12.43;6.10;;;;;;;;;;4942528;28;20038;-64
2022/07/13 15:06:31;;;;;;;12.90;5.10;;;;;;;;;;4953567;28;20033;-63
2022/07/13 15:09:18;;;;;;;10.68;4.35;;;;;;;;;;4969245;28;20023;-60
2022/07/13 15:12:04;;;;;;;8.45;4.20;;;;;;;;;;4950483;28;20502;-78
2022/07/13 15:14:49;;;;;;;9.70;3.83;;;;;;;;;;4959770;28;20125;-77
2022/07/13 15:17:35;;;;;;;4.80;3.17;;;;;;;;;;4963880;28;20489;-75
2022/07/13 15:20:22;;;;;;;6.28;3.30;;;;;;;;;;4966236;28;20035;-75
2022/07/13 15:23:08;;;;;;;4.68;2.50;;;;;;;;;;4960921;28;20110;-78
2022/07/13 15:25:53;;;;;;;3.00;1.98;;;;;;;;;;4962891;28;20038;-77
2022/07/13 15:28:39;;;;;;;5.95;2.17;;;;;;;;;;4964919;28;20055;-63
2022/07/13 15:31:25;;;;;;;3.15;2.17;;;;;;;;;;4958936;28;20046;-62
2022/07/13 15:34:10;;;;;;;2.67;1.70;;;;;;;;;;4960524;28;20067;-61
2022/07/13 15:36:56;;;;;;;4.28;2.17;;;;;;;;;;4970022;28;20389;-61
2022/07/13 15:39:42;;;;;;;5.18;2.05;;;;;;;;;;4987844;28;20120;-62
2022/07/13 15:42:27;;;;;;;2.90;1.75;;;;;;;;;;4990803;28;20046;-62
2022/07/13 15:45:13;;;;;;;2.70;1.52;;;;;;;;;;4988898;28;22140;-78
2022/07/13 15:47:58;;;;;;;3.97;1.90;;;;;;;;;;4978898;28;20492;-64
2022/07/13 15:50:44;;;;;;;3.80;1.60;;;;;;;;;;4982568;28;20049;-82
2022/07/13 15:53:29;;;;;;;6.57;1.77;;;;;;;;;;4986345;28;20091;-81
2022/07/13 15:56:15;;;;;;;2.88;1.42;;;;;;;;;;5001208;28;20042;-80
2022/07/13 15:59:01;;;;;;;4.10;1.48;;;;;;;;;;4996741;28;20036;-80
2022/07/13 16:01:46;;;;;;;2.33;1.40;;;;;;;;;;4993833;28;20030;-80
2022/07/13 16:04:32;;;;;;;4.45;1.10;;;;;;;;;;4996827;28;20083;-63
2022/07/13 16:07:18;;;;;;;4.15;1.35;;;;;;;;;;4992479;28;20092;-72
2022/07/13 16:10:03;;;;;;;4.63;1.50;;;;;;;;;;4989240;28;20030;-73
2022/07/13 16:12:49;;;;;;;5.28;1.08;;;;;;;;;;5014735;28;20798;-71
2022/07/13 16:15:35;;;;;;;2.42;1.00;;;;;;;;;;5013850;28;20182;-70
2022/07/13 16:18:20;;;;;;;4.30;1.02;;;;;;;;;;5013600;28;20061;-70
2022/07/13 16:21:07;;;;;;;3.95;1.52;;;;;;;;;;5006576;28;20511;-71
2022/07/13 16:23:52;;;;;;;3.08;1.10;;;;;;;;;;5007346;28;20048;-59
2022/07/13 16:26:38;;;;;;;2.97;1.08;;;;;;;;;;5004550;28;20121;-62
2022/07/13 16:29:23;;;;;;;6.05;1.90;;;;;;;;;;4980531;28;20087;-63
2022/07/13 16:32:09;;;;;;;1.38;1.00;;;;;;;;;;4997567;28;20026;-65
2022/07/13 16:34:55;;;;;;;4.88;1.50;;;;;;;;;;5010090;28;20029;-63
2022/07/13 16:37:40;;;;;;;2.00;1.10;;;;;;;;;;5006402;28;20060;-61
2022/07/13 16:40:26;;;;;;;3.25;0.90;;;;;;;;;;5010708;28;20057;-73
2022/07/13 16:43:12;;;;;;;3.88;1.10;;;;;;;;;;5002802;28;20077;-63
2022/07/13 16:45:57;;;;;;;4.07;1.15;;;;;;;;;;5009008;28;20103;-64
2022/07/13 16:48:43;;;;;;;2.30;1.05;;;;;;;;;;5004029;28;20037;-63
2022/07/13 16:51:28;;;;;;;1.40;1.00;;;;;;;;;;5001991;28;20041;-64
2022/07/13 16:54:15;;;;;;;2.45;1.10;;;;;;;;;;5002934;28;20029;-64
2022/07/13 16:57:01;;;;;;;2.17;1.20;;;;;;;;;;4997198;28;20058;-64